Time;durP1;ratioP1;P1;durP2;ratioP2;P2;SDS_P1;SDS_P2;PMS_P1;PMS_P2;Temp;Humidity;BMP_temperature;BMP_pressure;BME280_temperature;BME280_humidity;BME280_pressure;Samples;Min_cycle;Max_cycle;Signal;HPM_P1;HPM_P2
2023/08/28 00:00:30;;;;;;;6.13;5.60;;;15.00;99.90;;;15.54;100.00;97569.13;10272079;28;20651;-77
2023/08/28 00:05:34;;;;;;;6.10;5.53;;;14.90;99.90;;;15.49;100.00;97556.91;10287530;28;20242;-77
2023/08/28 00:10:38;;;;;;;5.43;4.93;;;14.90;99.90;;;15.51;100.00;97547.53;10314563;28;20230;-77
2023/08/28 00:15:42;;;;;;;5.28;4.85;;;14.90;99.90;;;15.58;100.00;97539.16;10291800;28;21916;-76
2023/08/28 00:20:46;;;;;;;3.97;3.40;;;14.90;99.90;;;15.42;100.00;97516.31;10292838;28;20227;-77
2023/08/28 00:25:49;;;;;;;4.32;3.88;;;14.70;99.90;;;15.32;100.00;97503.13;10270175;28;20323;-77
2023/08/28 00:30:54;;;;;;;4.43;4.05;;;14.70;99.90;;;15.39;100.00;97518.78;10282378;28;20231;-76
2023/08/28 00:35:57;;;;;;;4.78;4.20;;;14.70;99.90;;;15.32;100.00;97516.00;10294195;28;20231;-76
2023/08/28 00:41:00;;;;;;;6.00;5.50;;;14.70;99.90;;;15.39;100.00;97516.22;10276702;28;22038;-78
2023/08/28 00:46:06;;;;;;;5.55;5.05;;;14.70;99.90;;;15.43;100.00;97536.97;10277964;28;20290;-76
2023/08/28 00:51:09;;;;;;;7.20;5.97;;;14.70;99.90;;;15.30;100.00;97553.72;10301009;28;20235;-77
2023/08/28 00:56:12;;;;;;;6.25;5.65;;;14.70;99.90;;;15.29;100.00;97558.81;10318742;28;20237;-77
2023/08/28 01:01:17;;;;;;;6.88;6.15;;;14.60;99.90;;;15.33;100.00;97561.53;10284122;28;20224;-76
2023/08/28 01:06:29;;;;;;;8.82;8.05;;;14.70;99.90;;;15.40;100.00;97562.63;10313679;28;20255;-77
2023/08/28 01:11:38;;;;;;;8.80;8.00;;;14.80;99.90;;;15.51;100.00;97543.25;10276484;28;20238;-76
2023/08/28 01:16:45;;;;;;;9.98;7.93;;;14.80;99.90;;;15.38;100.00;97538.53;10299918;28;20713;-76
2023/08/28 01:21:54;;;;;;;7.68;6.88;;;14.70;99.90;;;15.18;100.00;97540.44;10280660;28;20783;-76
2023/08/28 01:26:59;;;;;;;11.23;6.22;;;14.60;99.90;;;15.28;100.00;97546.75;10279607;28;20223;-78
2023/08/28 01:32:02;;;;;;;5.90;5.40;;;14.60;99.90;;;15.21;100.00;97558.56;10280269;28;20232;-77
2023/08/28 01:37:15;;;;;;;6.57;5.32;;;14.60;99.90;;;15.30;100.00;97564.00;10277813;28;20227;-77
2023/08/28 01:42:20;;;;;;;4.95;4.55;;;14.70;99.90;;;15.36;100.00;97552.16;10279438;28;20224;-77
2023/08/28 01:47:24;;;;;;;5.10;4.47;;;14.70;99.90;;;15.22;100.00;97547.44;10292498;28;20616;-76
2023/08/28 01:52:28;;;;;;;3.53;3.33;;;14.60;99.90;;;15.26;100.00;97532.97;10310122;28;20687;-76
2023/08/28 01:57:32;;;;;;;4.10;3.80;;;14.60;99.90;;;15.28;100.00;97550.22;10292940;28;20231;-76
2023/08/28 02:02:36;;;;;;;3.47;3.22;;;14.60;99.90;;;15.28;100.00;97551.91;10278940;28;20220;-77
2023/08/28 02:07:39;;;;;;;4.63;4.32;;;14.60;99.90;;;15.36;100.00;97529.84;10270864;28;20231;-78
2023/08/28 02:12:43;;;;;;;5.03;4.65;;;14.60;99.90;;;15.32;100.00;97518.59;10274619;28;20763;-77
2023/08/28 02:17:46;;;;;;;4.75;4.15;;;14.60;99.90;;;15.26;100.00;97508.09;10293633;28;20235;-76
2023/08/28 02:22:50;;;;;;;4.15;3.80;;;14.60;99.90;;;15.24;100.00;97499.44;10273234;28;20234;-78
2023/08/28 02:27:54;;;;;;;4.15;3.85;;;14.50;99.90;;;15.14;100.00;97476.81;10295493;28;20751;-76
2023/08/28 02:32:57;;;;;;;3.90;3.60;;;14.50;99.90;;;15.23;100.00;97466.78;10274154;28;20231;-76
2023/08/28 02:38:00;;;;;;;3.85;3.55;;;14.50;99.90;;;15.26;100.00;97469.47;10271319;28;20223;-76
2023/08/28 02:43:06;;;;;;;4.90;4.60;;;14.60;99.90;;;15.23;100.00;97471.94;10273897;28;20246;-78
2023/08/28 02:48:10;;;;;;;6.18;5.63;;;14.60;99.90;;;15.24;100.00;97465.97;10296442;28;20236;-77
2023/08/28 02:53:13;;;;;;;7.13;6.43;;;14.50;99.90;;;15.17;100.00;97460.59;10311850;28;20251;-79
2023/08/28 02:58:17;;;;;;;6.68;6.07;;;14.50;99.90;;;15.09;100.00;97448.31;10276596;28;20239;-76
2023/08/28 03:03:22;;;;;;;6.10;5.60;;;14.50;99.90;;;15.08;100.00;97441.44;10276886;28;20748;-77
2023/08/28 03:08:25;;;;;;;7.32;5.75;;;14.40;99.90;;;15.16;100.00;97448.50;10295256;28;20286;-76
2023/08/28 03:13:30;;;;;;;5.55;5.15;;;14.50;99.90;;;15.21;100.00;97442.69;10292999;28;20239;-78
2023/08/28 03:18:33;;;;;;;6.68;5.95;;;14.50;99.90;;;15.06;100.00;97442.22;10294345;28;20223;-80
2023/08/28 03:23:36;;;;;;;5.15;4.75;;;14.40;99.90;;;15.12;100.00;97437.25;10306541;28;20621;-78
2023/08/28 03:28:40;;;;;;;5.68;5.28;;;14.50;99.90;;;15.12;100.00;97447.56;10295347;28;20233;-78
2023/08/28 03:33:44;;;;;;;6.30;5.70;;;14.40;99.90;;;15.15;100.00;97457.94;10272734;28;20235;-79
2023/08/28 03:38:47;;;;;;;6.40;5.82;;;14.50;99.90;;;15.12;100.00;97452.69;10295750;28;20269;-77
2023/08/28 03:43:51;;;;;;;5.88;5.38;;;14.50;99.90;;;15.15;100.00;97463.09;10286209;28;20232;-77
2023/08/28 03:48:54;;;;;;;6.70;6.20;;;14.50;99.90;;;15.08;100.00;97458.59;10272363;28;20228;-81
2023/08/28 03:53:57;;;;;;;6.75;6.15;;;14.40;99.90;;;15.13;100.00;97469.88;10275467;28;20391;-78
2023/08/28 03:59:02;;;;;;;6.97;6.30;;;14.50;99.90;;;15.09;100.00;97475.78;10274997;28;20241;-77
2023/08/28 04:04:05;;;;;;;10.40;5.28;;;14.40;99.90;;;14.96;100.00;97476.16;10271275;28;20223;-77
2023/08/28 04:09:09;;;;;;;5.00;4.50;;;14.30;99.90;;;14.91;100.00;97473.47;10272645;28;20294;-78
2023/08/28 04:14:13;;;;;;;5.63;5.20;;;14.30;99.90;;;14.84;100.00;97476.63;10276282;28;20736;-77
2023/08/28 04:19:17;;;;;;;5.30;4.90;;;14.20;99.90;;;14.92;100.00;97467.47;10283461;28;20227;-77
2023/08/28 04:24:20;;;;;;;6.63;6.00;;;14.30;99.90;;;15.01;100.00;97464.34;10281019;28;20752;-77
2023/08/28 04:29:27;;;;;;;6.95;6.43;;;14.40;99.90;;;14.93;100.00;97450.34;10302167;28;20842;-77
2023/08/28 04:34:30;;;;;;;7.00;6.40;;;14.30;99.90;;;14.98;100.00;97446.22;10300270;28;20256;-77
2023/08/28 04:39:33;;;;;;;7.45;6.85;;;14.30;99.90;;;15.09;100.00;97437.16;10280485;28;20279;-77
2023/08/28 04:44:38;;;;;;;7.68;6.90;;;14.50;99.90;;;15.22;100.00;97429.00;10284315;28;20745;-78
2023/08/28 04:49:41;;;;;;;9.50;6.95;;;14.50;99.90;;;14.99;100.00;97430.81;10290826;28;20315;-78
2023/08/28 04:54:45;;;;;;;7.85;7.15;;;14.30;99.90;;;15.09;100.00;97438.03;10306368;28;20228;-76
2023/08/28 04:59:49;;;;;;;7.55;6.93;;;14.40;99.90;;;15.02;100.00;97438.66;10293640;28;20238;-77
2023/08/28 05:04:52;;;;;;;8.18;7.47;;;14.40;99.90;;;15.06;100.00;97427.63;10272196;28;20235;-77
2023/08/28 05:09:56;;;;;;;7.00;6.40;;;14.30;99.90;;;15.02;100.00;97414.59;10274775;28;20320;-78
2023/08/28 05:15:01;;;;;;;6.82;6.32;;;14.30;99.90;;;14.99;100.00;97415.38;10301387;28;20230;-78
2023/08/28 05:20:05;;;;;;;7.03;6.32;;;14.40;99.90;;;15.02;100.00;97420.66;10295333;28;20227;-80
2023/08/28 05:25:09;;;;;;;7.18;6.55;;;14.40;99.90;;;15.19;100.00;97415.16;10285274;28;20314;-82
2023/08/28 05:30:14;;;;;;;7.88;7.28;;;14.40;99.90;;;15.26;100.00;97422.25;10287956;28;20235;-81
2023/08/28 05:35:17;;;;;;;5.18;4.78;;;14.50;99.90;;;15.25;100.00;97423.06;10291496;28;20236;-79
2023/08/28 05:40:21;;;;;;;8.23;5.40;;;14.50;99.90;;;15.07;100.00;97418.19;10277704;28;20231;-80
2023/08/28 05:45:25;;;;;;;7.32;6.63;;;14.40;99.90;;;15.10;100.00;97414.03;10281306;28;20223;-79
2023/08/28 05:50:28;;;;;;;7.03;6.50;;;14.40;99.90;;;15.09;100.00;97414.84;10276119;28;20243;-80
2023/08/28 05:55:31;;;;;;;7.65;6.47;;;14.50;99.90;;;15.30;100.00;97400.91;10280379;28;20243;-80
2023/08/28 06:00:36;;;;;;;7.55;6.85;;;14.60;99.90;;;15.28;100.00;97384.53;10290824;28;20282;-79
2023/08/28 06:05:39;;;;;;;8.07;7.38;;;14.60;99.90;;;15.34;100.00;97402.78;10281546;28;20234;-80
2023/08/28 06:10:43;;;;;;;7.68;6.97;;;14.60;99.90;;;15.27;100.00;97386.22;10284783;28;20224;-79
2023/08/28 06:15:48;;;;;;;6.45;5.95;;;14.60;99.90;;;15.08;100.00;97371.06;10282314;28;20240;-82
2023/08/28 06:20:51;;;;;;;14.15;13.05;;;14.50;99.90;;;15.37;100.00;97365.94;10286277;28;20242;-80
2023/08/28 06:25:54;;;;;;;13.00;11.73;;;14.70;99.90;;;15.37;100.00;97340.19;10295257;28;20226;-78
2023/08/28 06:30:59;;;;;;;13.05;10.65;;;14.70;99.90;;;15.54;100.00;97364.75;10306241;28;20225;-79
2023/08/28 06:36:02;;;;;;;6.90;6.30;;;14.90;99.90;;;15.60;100.00;97370.06;10304204;28;20228;-78
2023/08/28 06:41:05;;;;;;;7.40;6.70;;;14.90;99.90;;;15.55;100.00;97349.31;10290761;28;20241;-79
2023/08/28 06:46:10;;;;;;;7.53;6.55;;;14.90;99.90;;;15.60;100.00;97343.44;10298643;28;20235;-79
2023/08/28 06:51:13;;;;;;;7.07;6.47;;;14.90;99.90;;;15.82;100.00;97342.34;10273842;28;20240;-77
2023/08/28 06:56:17;;;;;;;7.10;6.40;;;15.10;99.90;;;15.92;100.00;97328.91;10276758;28;20230;-77
2023/08/28 07:01:22;;;;;;;7.60;5.85;;;15.20;99.90;;;15.87;100.00;97317.59;10277074;28;20343;-79
2023/08/28 07:06:25;;;;;;;6.45;5.43;;;15.10;99.90;;;15.97;100.00;97329.91;10277886;28;20306;-78
2023/08/28 07:11:28;;;;;;;5.20;4.72;;;15.20;99.90;;;15.99;100.00;97352.31;10281833;28;20226;-78
2023/08/28 07:16:33;;;;;;;4.90;4.47;;;15.20;99.90;;;16.09;100.00;97345.72;10297289;28;20234;-78
2023/08/28 07:21:37;;;;;;;5.38;4.88;;;15.30;99.90;;;16.15;100.00;97356.19;10275347;28;20298;-78
2023/08/28 07:26:40;;;;;;;5.53;4.50;;;15.40;99.90;;;16.16;100.00;97351.88;10276817;28;20228;-80
2023/08/28 07:31:45;;;;;;;4.97;4.57;;;15.30;99.90;;;16.09;100.00;97335.41;10306802;28;20236;-80
2023/08/28 07:36:48;;;;;;;4.88;4.28;;;15.30;99.90;;;15.99;100.00;97341.13;10284656;28;20251;-80
2023/08/28 07:41:51;;;;;;;4.70;4.40;;;15.20;99.90;;;16.01;100.00;97320.56;10286969;28;20270;-81
2023/08/28 07:46:56;;;;;;;3.63;3.42;;;15.30;99.90;;;16.11;100.00;97314.78;10287738;28;21001;-80
2023/08/28 07:51:59;;;;;;;4.43;4.03;;;15.50;99.90;;;16.16;100.00;97326.97;10290431;28;20223;-80
2023/08/28 07:57:03;;;;;;;4.60;4.30;;;15.50;99.90;;;16.34;100.00;97343.75;10288640;28;20227;-80
2023/08/28 08:02:08;;;;;;;5.05;4.65;;;15.60;99.90;;;16.43;100.00;97367.25;10291571;28;20227;-81
2023/08/28 08:07:11;;;;;;;4.97;4.53;;;15.60;99.90;;;16.42;100.00;97375.78;10293540;28;20295;-80
2023/08/28 08:12:14;;;;;;;4.32;3.92;;;15.60;99.90;;;16.42;100.00;97386.09;10307352;28;20229;-81
2023/08/28 08:17:19;;;;;;;4.68;4.38;;;15.70;99.90;;;16.44;100.00;97410.25;10286280;28;20231;-81
2023/08/28 08:22:22;;;;;;;4.80;4.40;;;15.70;99.90;;;16.38;100.00;97404.94;10290219;28;20309;-80
2023/08/28 08:27:27;;;;;;;4.70;4.30;;;15.60;99.90;;;16.37;100.00;97408.34;10301855;28;20354;-80
2023/08/28 08:32:32;;;;;;;4.68;4.28;;;15.60;99.90;;;16.45;100.00;97411.97;10293655;28;20227;-79
2023/08/28 08:37:35;;;;;;;4.70;4.40;;;15.70;99.90;;;16.33;100.00;97420.28;10277743;28;20878;-78
2023/08/28 08:42:39;;;;;;;4.22;3.90;;;15.60;99.90;;;16.39;100.00;97416.97;10290809;28;20250;-79
2023/08/28 08:47:48;;;;;;;4.72;4.32;;;15.60;99.90;;;16.33;100.00;97411.66;10308850;28;20239;-78
2023/08/28 08:52:52;;;;;;;4.20;3.80;;;15.60;99.90;;;16.28;100.00;97408.06;10288504;28;20220;-78
2023/08/28 08:57:58;;;;;;;4.38;4.05;;;15.70;99.90;;;16.08;100.00;97420.41;10276285;28;20740;-81
2023/08/28 09:03:03;;;;;;;5.97;5.38;;;15.50;99.90;;;15.98;100.00;97404.69;10274709;28;20247;-79
2023/08/28 09:08:08;;;;;;;5.57;5.10;;;15.50;99.90;;;15.69;100.00;97396.13;10284399;28;20234;-81
2023/08/28 09:13:12;;;;;;;6.57;5.43;;;15.30;99.90;;;15.50;100.00;97398.94;10283923;28;20319;-78
2023/08/28 09:18:17;;;;;;;6.40;5.80;;;15.20;99.90;;;15.50;100.00;97404.09;10301918;28;20235;-77
2023/08/28 09:23:20;;;;;;;5.82;5.22;;;15.10;99.90;;;15.64;100.00;97397.66;10293517;28;20234;-79
2023/08/28 09:28:24;;;;;;;6.15;5.65;;;15.30;99.90;;;15.63;100.00;97374.44;10280925;28;20236;-78
2023/08/28 09:33:45;;;;;;;6.45;5.95;;;15.30;99.90;;;15.81;100.00;97375.00;10284317;28;20223;-77
2023/08/28 09:39:08;;;;;;;5.60;5.20;;;15.50;99.90;;;16.13;100.00;97352.69;10279067;28;20224;-78
2023/08/28 09:44:12;;;;;;;7.03;6.43;;;15.80;99.90;;;16.58;100.00;97341.81;10280266;28;20243;-77
2023/08/28 09:49:17;;;;;;;6.40;5.80;;;16.30;99.90;;;16.65;100.00;97342.84;10302619;28;20599;-81
2023/08/28 09:54:24;;;;;;;8.70;6.43;;;16.30;99.90;;;16.71;100.00;97324.03;10288006;28;20224;-79
2023/08/28 09:59:29;;;;;;;6.32;5.70;;;16.50;99.90;;;16.70;100.00;97319.72;10279497;28;20244;-79
2023/08/28 10:04:35;;;;;;;6.55;6.03;;;16.60;99.90;;;16.70;100.00;97319.72;10299931;28;20223;-79
2023/08/28 10:09:43;;;;;;;6.53;6.07;;;16.50;99.90;;;17.24;100.00;97317.59;10283582;28;20278;-81
2023/08/28 10:14:46;;;;;;;5.50;5.10;;;17.00;99.90;;;17.36;100.00;97314.38;10285577;28;20314;-79
2023/08/28 10:19:58;;;;;;;6.15;5.65;;;17.10;99.90;;;17.06;100.00;97292.22;10282768;28;20235;-79
2023/08/28 10:25:03;;;;;;;6.18;5.78;;;16.90;99.90;;;17.51;99.50;97286.31;10276858;28;20274;-77
2023/08/28 10:30:09;;;;;;;5.32;4.97;;;17.30;99.90;;;17.77;99.15;97283.38;10282145;28;20236;-78
2023/08/28 10:35:15;;;;;;;5.53;5.03;;;17.60;99.90;;;18.24;95.35;97288.56;10278155;28;20239;-78
2023/08/28 10:40:21;;;;;;;4.78;4.38;;;17.90;99.90;;;18.43;94.60;97284.59;10286642;28;20231;-77
2023/08/28 10:45:24;;;;;;;4.45;4.05;;;17.90;99.90;;;18.06;92.58;97288.25;10305923;28;20235;-81
2023/08/28 10:50:36;;;;;;;4.32;3.92;;;17.60;99.90;;;18.09;97.07;97275.38;10280430;28;20223;-80
2023/08/28 10:55:40;;;;;;;4.38;4.07;;;17.60;99.90;;;17.55;93.02;97267.44;10287793;28;20232;-78
2023/08/28 11:00:43;;;;;;;3.92;3.63;;;17.40;99.90;;;17.51;98.49;97255.31;10280943;28;20228;-80
2023/08/28 11:05:48;;;;;;;3.60;3.30;;;17.20;99.90;;;17.75;92.81;97262.66;10269236;28;20498;-80
2023/08/28 11:11:13;;;;;;;3.90;3.60;;;17.50;99.90;;;17.83;88.50;97242.16;10289067;28;20232;-80
2023/08/28 11:16:26;;;;;;;3.40;3.17;;;17.60;99.90;;;18.17;88.71;97245.31;10283555;28;20747;-82
2023/08/28 11:21:42;;;;;;;3.72;3.35;;;17.80;99.90;;;18.05;86.26;97258.03;10293574;28;21040;-79
2023/08/28 11:26:45;;;;;;;3.42;3.10;;;17.80;99.90;;;18.12;87.63;97252.16;10283863;28;20219;-77
2023/08/28 11:31:48;;;;;;;3.50;3.20;;;17.70;99.90;;;18.08;85.78;97245.16;10275597;28;20238;-77
2023/08/28 11:36:52;;;;;;;3.50;3.20;;;17.60;99.90;;;18.02;84.94;97241.63;10292639;28;20238;-77
2023/08/28 11:41:56;;;;;;;2.92;2.72;;;17.60;99.90;;;18.10;85.96;97234.00;10286255;28;20224;-77
2023/08/28 11:47:00;;;;;;;2.88;2.72;;;17.60;99.90;;;18.17;86.90;97238.47;10278576;28;20230;-78
2023/08/28 11:52:05;;;;;;;2.65;2.55;;;17.60;99.90;;;18.09;85.54;97240.03;10298040;28;20764;-77
2023/08/28 11:57:11;;;;;;;3.53;3.20;;;17.50;99.90;;;17.92;86.40;97249.22;10308769;28;20227;-77
2023/08/28 12:02:16;;;;;;;3.17;2.92;;;17.40;99.90;;;17.94;88.98;97243.22;10302870;28;20877;-77
2023/08/28 12:07:22;;;;;;;3.42;3.17;;;17.40;99.90;;;17.93;87.00;97241.47;10276253;28;20744;-76
2023/08/28 12:12:26;;;;;;;3.20;3.00;;;17.40;99.90;;;18.04;86.64;97262.34;10293668;28;20224;-77
2023/08/28 12:17:29;;;;;;;3.55;3.10;;;17.40;99.90;;;17.98;86.94;97285.53;10276355;28;20709;-77
2023/08/28 12:22:42;;;;;;;3.05;2.85;;;17.40;99.90;;;17.85;86.95;97284.41;10268321;28;20792;-78
2023/08/28 12:27:46;;;;;;;2.70;2.60;;;17.30;99.90;;;17.86;87.37;97286.16;10269069;28;20235;-77
2023/08/28 12:32:54;;;;;;;3.20;3.00;;;17.30;99.90;;;17.82;87.35;97280.91;10274650;28;20317;-78
2023/08/28 12:38:01;;;;;;;2.60;2.40;;;17.20;99.90;;;17.88;86.13;97284.47;10291501;28;20235;-77
2023/08/28 12:43:09;;;;;;;2.92;2.70;;;17.30;99.90;;;17.77;83.61;97284.25;10291097;28;20461;-77
2023/08/28 12:48:13;;;;;;;2.60;2.40;;;17.30;99.90;;;17.74;83.78;97265.19;10298032;28;20231;-77
2023/08/28 12:53:17;;;;;;;2.35;2.15;;;17.30;99.90;;;17.78;86.36;97272.22;10307488;28;20227;-77
2023/08/28 12:58:20;;;;;;;2.60;2.40;;;17.30;99.90;;;17.88;82.90;97284.47;10277520;28;20235;-77
2023/08/28 13:03:25;;;;;;;2.60;2.40;;;17.30;99.90;;;17.72;83.61;97282.41;10286460;28;20238;-77
2023/08/28 13:08:29;;;;;;;3.22;2.42;;;17.20;99.90;;;17.65;81.60;97280.53;10280279;28;20767;-77
2023/08/28 13:13:32;;;;;;;2.65;2.45;;;17.10;99.90;;;17.68;81.28;97273.69;10292510;28;20227;-76
2023/08/28 13:18:36;;;;;;;2.30;2.10;;;17.10;99.90;;;17.67;79.67;97281.44;10274557;28;20231;-75
2023/08/28 13:23:40;;;;;;;1.98;1.88;;;17.10;99.90;;;17.76;82.48;97285.06;10277083;28;20728;-77
2023/08/28 13:28:43;;;;;;;4.90;2.65;;;17.20;99.90;;;17.90;80.51;97280.19;10281972;28;20224;-77
2023/08/28 13:33:48;;;;;;;2.30;2.20;;;17.30;99.90;;;17.90;81.68;97275.03;10310668;28;20219;-76
2023/08/28 13:38:53;;;;;;;2.38;2.20;;;17.30;99.90;;;17.66;84.12;97282.28;10302021;28;20243;-77
2023/08/28 13:43:56;;;;;;;2.15;1.95;;;17.20;99.90;;;17.42;86.32;97291.25;10274361;28;20247;-78
2023/08/28 13:48:59;;;;;;;2.55;2.10;;;17.00;99.90;;;17.32;89.63;97297.97;10282865;28;20237;-79
2023/08/28 13:54:05;;;;;;;2.30;2.20;;;16.90;99.90;;;17.20;91.07;97289.09;10306358;28;20366;-79
2023/08/28 13:59:08;;;;;;;2.38;2.28;;;16.80;99.90;;;17.21;92.31;97281.34;10282475;28;20240;-79
2023/08/28 14:04:13;;;;;;;3.15;2.35;;;16.90;99.90;;;17.04;92.38;97282.69;10271754;28;20234;-78
2023/08/28 14:09:17;;;;;;;2.72;2.58;;;16.80;99.90;;;17.06;93.12;97266.41;10277033;28;20231;-78
2023/08/28 14:14:20;;;;;;;2.65;2.50;;;16.80;99.90;;;17.23;96.76;97264.19;10285317;28;20223;-76
2023/08/28 14:19:24;;;;;;;2.75;2.55;;;16.90;99.90;;;17.19;91.80;97269.25;10284036;28;20669;-77
2023/08/28 14:24:29;;;;;;;3.00;2.78;;;16.90;99.90;;;17.14;93.90;97276.00;10279580;28;20249;-76
2023/08/28 14:29:32;;;;;;;2.45;2.35;;;16.90;99.90;;;17.19;95.17;97264.09;10277210;28;20541;-76
2023/08/28 14:34:36;;;;;;;3.47;2.90;;;16.90;99.90;;;17.15;95.92;97263.16;10292562;28;20230;-76
2023/08/28 14:39:40;;;;;;;3.33;3.13;;;16.90;99.90;;;17.21;96.36;97262.41;10307509;28;20235;-77
2023/08/28 14:44:43;;;;;;;4.78;3.58;;;16.80;99.90;;;17.21;96.14;97265.00;10299676;28;20318;-76
2023/08/28 14:49:46;;;;;;;3.78;3.50;;;16.80;99.90;;;17.27;93.45;97254.78;10282808;28;20232;-75
2023/08/28 14:54:52;;;;;;;4.40;3.95;;;16.90;99.90;;;17.09;93.17;97269.06;10275548;28;20230;-76
2023/08/28 14:59:55;;;;;;;4.00;3.70;;;16.80;99.90;;;17.07;93.34;97269.84;10263832;28;20231;-76
2023/08/28 15:04:58;;;;;;;5.82;5.32;;;16.70;99.90;;;17.01;94.65;97286.09;10263653;28;20487;-75
2023/08/28 15:10:05;;;;;;;6.45;5.82;;;16.60;99.90;;;16.91;91.42;97283.25;10276089;28;20241;-76
2023/08/28 15:15:09;;;;;;;4.38;3.60;;;16.50;99.90;;;16.84;91.34;97288.28;10296237;28;20501;-75
2023/08/28 15:20:12;;;;;;;4.47;4.18;;;16.50;99.90;;;16.81;91.79;97297.66;10271688;28;20240;-76
2023/08/28 15:25:17;;;;;;;3.42;3.22;;;16.40;99.90;;;16.92;93.71;97293.63;10279735;28;20227;-76
2023/08/28 15:30:20;;;;;;;6.30;3.30;;;16.50;99.90;;;16.96;91.89;97282.53;10265222;28;20322;-79
2023/08/28 15:35:23;;;;;;;3.50;2.97;;;16.50;99.90;;;16.95;91.24;97273.03;10272467;28;20383;-79
2023/08/28 15:40:28;;;;;;;2.92;2.72;;;16.40;99.90;;;16.91;90.23;97272.94;10271466;28;20238;-80
2023/08/28 15:45:31;;;;;;;3.25;3.05;;;16.40;99.90;;;16.89;89.49;97260.00;10266494;28;20251;-79
2023/08/28 15:50:34;;;;;;;3.35;2.95;;;16.30;99.90;;;16.81;86.34;97267.56;10283545;28;20232;-78
2023/08/28 15:55:39;;;;;;;3.10;2.90;;;16.30;99.90;;;16.77;88.41;97259.69;10271098;28;20228;-79
2023/08/28 16:00:42;;;;;;;3.28;3.08;;;16.20;99.90;;;16.81;89.32;97274.44;10287317;28;20227;-78
2023/08/28 16:05:45;;;;;;;3.20;2.97;;;16.20;99.90;;;16.83;88.00;97278.81;10283944;28;20258;-78
2023/08/28 16:10:50;;;;;;;3.85;3.45;;;16.20;99.90;;;16.68;87.08;97275.81;10287326;28;20455;-78
2023/08/28 16:15:53;;;;;;;3.22;3.03;;;16.00;99.90;;;16.73;87.25;97263.03;10273704;28;20246;-78
2023/08/28 16:20:56;;;;;;;3.10;2.85;;;16.00;99.90;;;16.66;87.16;97257.72;10293476;28;20433;-79
2023/08/28 16:26:01;;;;;;;2.90;2.70;;;16.00;99.90;;;16.71;87.14;97256.94;10273801;28;20227;-77
2023/08/28 16:31:05;;;;;;;3.88;3.00;;;16.00;99.90;;;16.65;86.10;97261.16;10282583;28;20226;-78
2023/08/28 16:36:08;;;;;;;4.50;3.22;;;15.90;99.90;;;16.50;86.11;97277.97;10288473;28;20266;-78
2023/08/28 16:41:12;;;;;;;4.45;4.15;;;15.90;99.90;;;16.32;86.41;97286.13;10278810;28;20232;-78
2023/08/28 16:46:16;;;;;;;3.20;3.00;;;15.70;99.90;;;16.28;86.13;97284.28;10273392;28;20227;-78
2023/08/28 16:51:19;;;;;;;2.97;2.78;;;15.60;99.90;;;16.25;85.72;97282.50;10322886;28;20676;-78
2023/08/28 16:56:23;;;;;;;2.95;2.75;;;15.60;99.90;;;16.21;86.42;97283.28;10281939;28;20238;-78
2023/08/28 17:01:27;;;;;;;2.40;2.30;;;15.50;99.90;;;16.17;86.94;97296.94;10309739;28;20258;-78
2023/08/28 17:06:30;;;;;;;3.75;2.42;;;15.50;99.90;;;16.15;86.76;97289.13;10304750;28;20251;-78
2023/08/28 17:11:34;;;;;;;2.92;2.72;;;15.50;99.90;;;16.15;85.29;97288.28;10294417;28;20231;-79
2023/08/28 17:16:37;;;;;;;2.95;2.72;;;15.50;99.90;;;15.99;85.38;97297.28;10290770;28;20235;-80
2023/08/28 17:21:41;;;;;;;2.85;2.65;;;15.50;99.90;;;16.03;86.95;97293.97;10293599;28;20860;-79
2023/08/28 17:26:46;;;;;;;3.10;2.90;;;15.40;99.90;;;16.08;86.59;97287.25;10318291;28;20777;-80
2023/08/28 17:31:49;;;;;;;2.92;2.70;;;15.40;99.90;;;15.97;86.76;97288.66;10300386;28;20323;-80
2023/08/28 17:36:52;;;;;;;2.72;2.50;;;15.30;99.90;;;15.99;86.45;97303.34;10304704;28;20254;-80
2023/08/28 17:41:57;;;;;;;3.15;2.95;;;15.30;99.90;;;15.94;84.57;97307.50;10288342;28;20223;-78
2023/08/28 17:47:01;;;;;;;4.43;4.00;;;15.30;99.90;;;15.98;87.12;97311.03;10284799;28;20232;-82
2023/08/28 17:52:04;;;;;;;4.38;3.97;;;15.40;99.90;;;16.01;87.61;97320.56;10290004;28;20223;-78
2023/08/28 17:57:09;;;;;;;2.72;2.58;;;15.30;99.90;;;16.01;87.83;97329.16;10291711;28;20232;-78
2023/08/28 18:02:12;;;;;;;2.42;2.22;;;15.30;99.90;;;15.99;87.84;97328.22;10285998;28;20225;-79
2023/08/28 18:07:15;;;;;;;3.55;3.03;;;15.30;99.90;;;16.01;87.91;97330.88;10283812;28;20233;-80
2023/08/28 18:12:20;;;;;;;3.70;3.40;;;15.30;99.90;;;15.99;88.77;97329.13;10298192;28;20582;-81
2023/08/28 18:17:23;;;;;;;2.70;2.60;;;15.30;99.90;;;16.04;87.41;97326.66;10293445;28;20255;-79
2023/08/28 18:22:26;;;;;;;3.60;2.40;;;15.20;99.90;;;15.93;87.61;97339.25;10303723;28;20234;-79
2023/08/28 18:27:31;;;;;;;2.42;2.33;;;15.20;99.90;;;15.84;88.72;97330.41;10288036;28;20229;-81
2023/08/28 18:32:34;;;;;;;2.92;2.35;;;15.20;99.90;;;15.79;87.59;97337.13;10289140;28;20227;-80
2023/08/28 18:37:37;;;;;;;2.55;2.35;;;15.10;99.90;;;15.81;86.72;97330.31;10291918;28;20228;-82
2023/08/28 18:42:42;;;;;;;2.72;2.60;;;15.10;99.90;;;15.89;86.69;97346.88;10293554;28;20226;-81
2023/08/28 18:47:45;;;;;;;2.13;2.03;;;15.10;99.90;;;15.87;84.55;97353.69;10293064;28;20224;-80
2023/08/28 18:52:48;;;;;;;2.45;2.17;;;15.10;99.90;;;15.79;87.68;97365.47;10286331;28;20223;-79
2023/08/28 18:57:53;;;;;;;2.35;2.25;;;15.10;99.90;;;15.66;88.37;97365.09;10291730;28;20234;-79
2023/08/28 19:02:56;;;;;;;2.60;2.50;;;15.00;99.90;;;15.65;90.83;97362.44;10283580;28;20728;-78
2023/08/28 19:07:59;;;;;;;2.55;2.35;;;15.00;99.90;;;15.59;93.22;97370.00;10283568;28;20764;-77
2023/08/28 19:13:04;;;;;;;2.85;2.65;;;15.00;99.90;;;15.58;95.20;97368.28;10280690;28;20216;-78
2023/08/28 19:18:08;;;;;;;2.80;2.60;;;15.00;99.90;;;15.54;95.75;97375.91;10302241;28;20231;-77
2023/08/28 19:23:11;;;;;;;2.78;2.63;;;15.00;99.90;;;15.44;96.84;97368.72;10285881;28;20755;-78
2023/08/28 19:28:16;;;;;;;2.80;2.60;;;14.90;99.90;;;15.39;96.90;97374.56;10281008;28;20236;-78
2023/08/28 19:33:19;;;;;;;2.83;2.70;;;14.90;99.90;;;15.39;97.92;97384.88;10275212;28;20230;-79
2023/08/28 19:38:23;;;;;;;4.78;2.70;;;14.90;99.90;;;15.36;99.14;97384.78;10273638;28;20247;-80
2023/08/28 19:43:28;;;;;;;2.67;2.58;;;14.80;99.90;;;15.36;99.94;97374.47;10270041;28;20227;-79
2023/08/28 19:48:31;;;;;;;2.85;2.75;;;14.80;99.90;;;15.36;100.00;97364.16;10284541;28;20614;-78
2023/08/28 19:53:35;;;;;;;3.28;2.97;;;14.80;99.90;;;15.29;100.00;97358.84;10266828;28;20231;-80
2023/08/28 19:58:39;;;;;;;3.20;3.00;;;14.70;99.90;;;15.32;100.00;97379.53;10267995;28;20235;-81
2023/08/28 20:03:43;;;;;;;3.97;3.00;;;14.70;99.90;;;15.30;100.00;97373.44;10296853;28;20795;-80
2023/08/28 20:08:46;;;;;;;3.47;3.17;;;14.60;99.90;;;15.28;100.00;97364.81;10272056;28;20230;-79
2023/08/28 20:13:51;;;;;;;2.80;2.60;;;14.60;99.90;;;15.27;100.00;97339.00;10291956;28;20220;-80
2023/08/28 20:18:54;;;;;;;3.00;2.88;;;14.60;99.90;;;15.29;100.00;97338.25;10291681;28;20236;-81
2023/08/28 20:23:57;;;;;;;3.15;2.95;;;14.60;99.90;;;15.32;100.00;97343.47;10296770;28;20229;-79
2023/08/28 20:29:01;;;;;;;2.85;2.67;;;14.60;99.90;;;15.21;100.00;97339.72;10272579;28;20607;-78
2023/08/28 20:34:05;;;;;;;3.03;2.80;;;14.50;99.90;;;15.19;100.00;97325.91;10276836;28;20227;-78
2023/08/28 20:39:08;;;;;;;3.63;3.33;;;14.60;99.90;;;15.15;100.00;97334.38;10290531;28;20362;-78
2023/08/28 20:44:13;;;;;;;3.08;2.88;;;14.50;99.90;;;15.17;100.00;97337.00;10269525;28;20275;-77
2023/08/28 20:49:17;;;;;;;2.95;2.70;;;14.50;99.90;;;15.17;100.00;97337.88;10294594;28;20238;-77
2023/08/28 20:54:20;;;;;;;3.90;2.97;;;14.50;99.90;;;15.21;100.00;97333.69;10293970;28;20598;-80